Time;durP1;ratioP1;P1;durP2;ratioP2;P2;SDS_P1;SDS_P2;PMS_P1;PMS_P2;Temp;Humidity;BMP_temperature;BMP_pressure;BME280_temperature;BME280_humidity;BME280_pressure;Samples;Min_cycle;Max_cycle;Signal;HPM_P1;HPM_P2
2020/12/02 00:01:25;;;;;;;11.25;8.73;;;2.00;99.90;;;;;;5042909;28;20212;-76
2020/12/02 00:03:57;;;;;;;11.45;9.07;;;1.90;99.90;;;;;;5041440;28;20217;-76
2020/12/02 00:06:25;;;;;;;11.52;9.65;;;2.00;99.90;;;;;;5042482;28;20208;-77
2020/12/02 00:08:58;;;;;;;13.27;9.52;;;2.00;99.90;;;;;;5042106;28;20201;-76
2020/12/02 00:11:28;;;;;;;12.05;9.05;;;2.00;99.90;;;;;;5042373;28;20204;-76
2020/12/02 00:13:59;;;;;;;14.10;10.48;;;1.90;99.90;;;;;;5043262;28;20622;-77
2020/12/02 00:16:29;;;;;;;11.93;8.68;;;1.90;99.90;;;;;;5042709;28;20204;-76
2020/12/02 00:18:56;;;;;;;15.88;10.55;;;1.90;99.90;;;;;;5042742;28;20300;-76
2020/12/02 00:21:24;;;;;;;13.82;9.77;;;1.90;99.90;;;;;;5042811;28;20314;-76
2020/12/02 00:23:52;;;;;;;12.65;8.57;;;1.90;99.90;;;;;;5042068;28;20736;-76
2020/12/02 00:26:20;;;;;;;13.90;9.50;;;1.80;99.90;;;;;;5042251;28;20649;-76
2020/12/02 00:28:47;;;;;;;16.25;10.70;;;1.80;99.90;;;;;;5043352;28;20650;-76
2020/12/02 00:31:15;;;;;;;17.55;10.35;;;1.90;99.90;;;;;;5044873;28;20555;-76
2020/12/02 00:33:41;;;;;;;13.38;9.63;;;1.80;99.90;;;;;;5043364;28;20209;-76
2020/12/02 00:36:07;;;;;;;13.10;8.85;;;1.90;99.90;;;;;;5044152;28;20228;-76
2020/12/02 00:38:34;;;;;;;11.52;9.23;;;1.90;99.90;;;;;;5044451;28;20221;-76
2020/12/02 00:41:00;;;;;;;13.55;9.60;;;1.90;99.90;;;;;;5044939;28;20208;-76
2020/12/02 00:43:28;;;;;;;12.00;9.23;;;1.90;99.90;;;;;;5044662;28;20229;-76
2020/12/02 00:45:58;;;;;;;15.50;10.38;;;1.90;99.90;;;;;;5045964;28;20613;-76
2020/12/02 00:48:28;;;;;;;14.15;9.40;;;1.90;99.90;;;;;;5044977;28;20458;-76
2020/12/02 00:50:55;;;;;;;16.08;9.93;;;1.80;99.90;;;;;;5044911;28;20664;-77
2020/12/02 00:53:24;;;;;;;15.05;9.65;;;1.80;99.90;;;;;;5044405;28;20240;-76
2020/12/02 00:55:51;;;;;;;15.80;10.48;;;1.80;99.90;;;;;;5044727;28;20699;-76
2020/12/02 00:58:27;;;;;;;15.20;10.00;;;1.80;99.90;;;;;;5050940;28;20607;-78
2020/12/02 01:00:56;;;;;;;13.52;9.65;;;1.90;99.90;;;;;;5055482;28;20208;-78
2020/12/02 01:03:24;;;;;;;14.20;9.77;;;1.90;99.90;;;;;;5055159;28;20230;-78
2020/12/02 01:05:51;;;;;;;17.95;11.52;;;1.90;99.90;;;;;;5068124;28;20193;-77
2020/12/02 01:08:23;;;;;;;14.85;10.00;;;1.90;99.90;;;;;;5069198;28;20215;-76
2020/12/02 01:10:54;;;;;;;18.05;10.50;;;1.90;99.90;;;;;;5070296;28;20267;-76
2020/12/02 01:13:21;;;;;;;17.13;10.60;;;1.90;99.90;;;;;;5065071;28;20733;-77
2020/12/02 01:15:47;;;;;;;15.02;10.43;;;1.90;99.90;;;;;;5070589;28;20200;-76
2020/12/02 01:18:21;;;;;;;19.20;11.40;;;1.90;99.90;;;;;;5073669;28;20216;-78
2020/12/02 01:20:54;;;;;;;16.63;10.30;;;1.80;99.90;;;;;;5077745;28;20663;-77
2020/12/02 01:23:22;;;;;;;16.33;11.18;;;1.80;99.90;;;;;;5080062;28;20653;-78
2020/12/02 01:25:49;;;;;;;16.33;11.07;;;1.80;99.90;;;;;;5082088;28;20204;-78
2020/12/02 01:28:23;;;;;;;14.43;10.20;;;1.90;99.90;;;;;;5081840;28;20204;-78
2020/12/02 01:30:50;;;;;;;16.77;10.55;;;1.90;99.90;;;;;;5081280;28;20212;-77
2020/12/02 01:33:17;;;;;;;17.02;9.90;;;1.90;99.90;;;;;;5080407;28;20224;-78
2020/12/02 01:35:46;;;;;;;20.52;10.77;;;1.90;99.90;;;;;;5079431;28;20208;-78
2020/12/02 01:38:16;;;;;;;28.58;10.90;;;1.80;99.90;;;;;;5080895;28;20227;-78
2020/12/02 01:40:43;;;;;;;23.83;10.95;;;1.80;99.90;;;;;;5079282;28;20211;-78
2020/12/02 01:43:11;;;;;;;17.08;10.50;;;1.80;99.90;;;;;;5079700;28;20228;-76
2020/12/02 01:45:39;;;;;;;20.58;11.55;;;1.80;99.90;;;;;;5080377;28;20257;-78
2020/12/02 01:48:31;;;;;;;17.05;10.18;;;1.80;99.90;;;;;;5080362;28;20200;-78
2020/12/02 01:51:02;;;;;;;20.55;10.30;;;1.70;99.90;;;;;;5080554;28;20219;-78
2020/12/02 01:53:39;;;;;;;38.38;11.60;;;1.70;99.90;;;;;;5079556;28;20704;-78
2020/12/02 01:56:15;;;;;;;25.10;10.73;;;1.70;99.90;;;;;;5076695;28;20439;-76
2020/12/02 01:58:49;;;;;;;47.40;12.38;;;1.70;99.90;;;;;;5067537;28;20231;-76
2020/12/02 02:01:21;;;;;;;23.25;10.18;;;1.70;99.90;;;;;;5078322;28;20208;-78
2020/12/02 02:03:50;;;;;;;42.65;12.50;;;1.70;99.90;;;;;;5079318;28;20575;-78
2020/12/02 02:06:22;;;;;;;19.55;11.30;;;1.70;99.90;;;;;;5080049;28;20196;-78
2020/12/02 02:08:48;;;;;;;24.85;12.07;;;1.70;99.90;;;;;;5080016;28;20204;-78
2020/12/02 02:11:17;;;;;;;20.15;11.13;;;1.70;99.90;;;;;;5080287;28;20216;-78
2020/12/02 02:14:22;;;;;;;23.67;11.70;;;1.70;99.90;;;;;;5080061;28;20208;-77
2020/12/02 02:16:49;;;;;;;33.15;11.23;;;1.70;99.90;;;;;;5037118;28;20214;-77
2020/12/02 02:19:19;;;;;;;19.88;11.82;;;1.70;99.90;;;;;;5036977;28;20202;-78
2020/12/02 02:21:47;;;;;;;16.70;11.50;;;1.60;99.90;;;;;;5058295;28;20605;-78
2020/12/02 02:24:13;;;;;;;21.95;10.55;;;1.70;99.90;;;;;;5079592;28;20639;-78
2020/12/02 02:26:42;;;;;;;25.17;12.20;;;1.70;99.90;;;;;;5080924;28;20220;-78
2020/12/02 02:29:13;;;;;;;20.75;12.70;;;1.70;99.90;;;;;;5080349;28;20200;-78
2020/12/02 02:31:48;;;;;;;22.10;11.15;;;1.70;99.90;;;;;;5078101;28;20254;-77
2020/12/02 02:34:15;;;;;;;28.67;11.43;;;1.70;99.90;;;;;;5076531;28;20200;-77
2020/12/02 02:36:42;;;;;;;22.17;12.15;;;1.70;99.90;;;;;;5077495;28;20215;-77
2020/12/02 02:39:10;;;;;;;23.92;11.98;;;1.80;99.90;;;;;;5078970;28;20200;-78
2020/12/02 02:41:36;;;;;;;16.10;11.35;;;1.70;99.90;;;;;;5077698;28;20224;-78
2020/12/02 02:44:04;;;;;;;19.15;12.55;;;1.70;99.90;;;;;;5077534;28;20204;-78
2020/12/02 02:46:31;;;;;;;16.67;12.85;;;1.70;99.90;;;;;;5078086;28;20204;-78
2020/12/02 02:48:57;;;;;;;16.00;9.93;;;1.70;99.90;;;;;;5077425;28;20211;-78
2020/12/02 02:51:23;;;;;;;36.30;12.10;;;1.70;99.90;;;;;;5076797;28;20215;-78
2020/12/02 02:53:50;;;;;;;16.88;12.77;;;1.70;99.90;;;;;;5076919;28;20549;-78
2020/12/02 02:56:16;;;;;;;18.15;11.18;;;1.70;99.90;;;;;;5077581;28;20209;-78
2020/12/02 02:58:42;;;;;;;14.88;10.57;;;1.70;99.90;;;;;;5076492;28;20224;-78
2020/12/02 03:01:10;;;;;;;18.65;11.20;;;1.70;99.90;;;;;;5084841;28;20291;-77
2020/12/02 03:03:36;;;;;;;14.95;9.80;;;1.70;99.90;;;;;;5073861;28;20208;-77
2020/12/02 03:06:06;;;;;;;20.00;12.18;;;1.60;99.90;;;;;;5072016;28;20299;-76
2020/12/02 03:08:32;;;;;;;27.40;13.30;;;1.60;99.90;;;;;;5071324;28;20200;-77
2020/12/02 03:11:01;;;;;;;19.90;11.13;;;1.60;99.90;;;;;;5072254;28;20604;-77
2020/12/02 03:13:37;;;;;;;15.25;10.10;;;1.60;99.90;;;;;;5071766;28;20424;-76
2020/12/02 03:16:07;;;;;;;17.00;10.43;;;1.60;99.90;;;;;;5072657;28;20207;-76
2020/12/02 03:18:34;;;;;;;14.30;10.55;;;1.70;99.90;;;;;;5072481;28;20220;-78
2020/12/02 03:21:07;;;;;;;17.50;11.38;;;1.70;99.90;;;;;;5074404;28;20577;-78
2020/12/02 03:23:33;;;;;;;17.48;10.80;;;1.70;99.90;;;;;;5074608;28;20200;-77
2020/12/02 03:25:59;;;;;;;19.38;10.95;;;1.60;99.90;;;;;;5075143;28;20212;-78
2020/12/02 03:28:28;;;;;;;14.68;10.27;;;1.60;99.90;;;;;;5074919;28;20195;-77
2020/12/02 03:30:56;;;;;;;19.30;11.27;;;1.60;99.90;;;;;;5075167;28;20207;-78
2020/12/02 03:33:22;;;;;;;17.35;11.43;;;1.60;99.90;;;;;;5074550;28;20734;-78
2020/12/02 03:35:49;;;;;;;16.60;10.63;;;1.60;99.90;;;;;;5075479;28;20286;-77
2020/12/02 03:38:15;;;;;;;13.18;9.35;;;1.70;99.90;;;;;;5074890;28;20236;-77
2020/12/02 03:40:42;;;;;;;14.70;10.68;;;1.70;99.90;;;;;;5075200;28;20208;-78
2020/12/02 03:43:08;;;;;;;16.05;11.63;;;1.60;99.90;;;;;;5075006;28;20216;-78
2020/12/02 03:45:40;;;;;;;12.70;9.60;;;1.60;99.90;;;;;;5076606;28;20201;-78
2020/12/02 03:48:07;;;;;;;14.55;10.00;;;1.60;99.90;;;;;;5076038;28;20203;-77
2020/12/02 03:50:33;;;;;;;15.13;10.55;;;1.60;99.90;;;;;;5075102;28;20208;-77
2020/12/02 03:53:00;;;;;;;16.63;10.30;;;1.60;99.90;;;;;;5075370;28;20687;-77
2020/12/02 03:55:26;;;;;;;14.27;9.77;;;1.70;99.90;;;;;;5075920;28;20215;-77
2020/12/02 03:57:53;;;;;;;14.57;10.23;;;1.70;99.90;;;;;;5076464;28;20619;-77
2020/12/02 04:00:19;;;;;;;13.05;9.38;;;1.60;99.90;;;;;;5075445;28;20219;-77
2020/12/02 04:02:45;;;;;;;13.95;10.23;;;1.70;99.90;;;;;;5073695;28;20715;-77
2020/12/02 04:05:11;;;;;;;13.15;9.95;;;1.70;99.90;;;;;;5075753;28;20212;-77
2020/12/02 04:07:38;;;;;;;11.52;9.75;;;1.60;99.90;;;;;;5076077;28;20204;-77
2020/12/02 04:10:05;;;;;;;13.95;10.02;;;1.60;99.90;;;;;;5077297;28;20201;-77
2020/12/02 04:12:31;;;;;;;11.93;9.43;;;1.60;99.90;;;;;;5075628;28;20220;-78
2020/12/02 04:14:57;;;;;;;14.07;9.82;;;1.70;99.90;;;;;;5075264;28;20208;-78
2020/12/02 04:17:24;;;;;;;18.17;11.60;;;1.70;99.90;;;;;;5076636;28;20216;-77
2020/12/02 04:19:50;;;;;;;18.25;10.70;;;1.60;99.90;;;;;;5076214;28;20196;-78
2020/12/02 04:22:16;;;;;;;13.15;9.93;;;1.60;99.90;;;;;;5075620;28;20232;-78
2020/12/02 04:24:42;;;;;;;14.38;10.65;;;1.70;99.90;;;;;;5076015;28;20605;-77
2020/12/02 04:27:09;;;;;;;13.70;10.60;;;1.60;99.90;;;;;;5061680;28;20204;-78
2020/12/02 04:29:36;;;;;;;14.40;11.07;;;1.60;99.90;;;;;;5056457;28;20204;-76
2020/12/02 04:32:04;;;;;;;13.70;9.65;;;1.70;99.90;;;;;;5057586;28;20224;-77
2020/12/02 04:34:31;;;;;;;12.63;9.95;;;1.70;99.90;;;;;;5055824;28;20205;-77
2020/12/02 04:36:57;;;;;;;14.77;9.55;;;1.80;99.90;;;;;;5054079;28;20216;-77
2020/12/02 04:39:25;;;;;;;13.80;10.05;;;1.70;99.90;;;;;;5051351;28;20205;-77
2020/12/02 04:41:51;;;;;;;14.30;10.82;;;1.70;99.90;;;;;;5053044;28;20715;-77
2020/12/02 04:44:18;;;;;;;16.98;10.30;;;1.70;99.90;;;;;;5054647;28;20212;-78
2020/12/02 04:46:44;;;;;;;16.80;10.63;;;1.70;99.90;;;;;;5053708;28;20482;-77
2020/12/02 04:49:19;;;;;;;18.05;10.35;;;1.70;99.90;;;;;;5048987;28;20213;-76
2020/12/02 04:51:45;;;;;;;13.15;10.05;;;1.70;99.90;;;;;;5050929;28;20231;-77
2020/12/02 04:54:13;;;;;;;15.93;11.05;;;1.70;99.90;;;;;;5058850;28;20201;-78
2020/12/02 04:56:43;;;;;;;15.18;9.88;;;1.60;99.90;;;;;;5059497;28;20204;-78
2020/12/02 04:59:09;;;;;;;14.93;9.88;;;1.70;99.90;;;;;;5059018;28;20235;-77
2020/12/02 05:01:48;;;;;;;13.55;10.20;;;1.70;99.90;;;;;;5061593;28;20220;-77
2020/12/02 05:04:17;;;;;;;10.45;8.82;;;1.70;99.90;;;;;;5057548;28;20215;-77
2020/12/02 05:06:45;;;;;;;12.35;9.27;;;1.70;99.90;;;;;;5064081;28;20201;-77
2020/12/02 05:09:17;;;;;;;14.48;10.30;;;1.70;99.90;;;;;;5062070;28;20648;-79
2020/12/02 05:11:55;;;;;;;13.13;10.82;;;1.70;99.90;;;;;;5058802;28;20279;-78
2020/12/02 05:14:22;;;;;;;15.40;11.68;;;1.60;99.90;;;;;;5058598;28;20209;-76
2020/12/02 05:17:04;;;;;;;16.48;11.13;;;1.70;99.90;;;;;;5057286;28;20208;-76
2020/12/02 05:19:30;;;;;;;15.82;11.90;;;1.70;99.90;;;;;;5055427;28;20266;-76
2020/12/02 05:22:04;;;;;;;13.68;9.90;;;1.70;99.90;;;;;;5053401;28;20621;-77
2020/12/02 05:24:43;;;;;;;14.77;9.90;;;1.70;99.90;;;;;;5055852;28;20208;-76
2020/12/02 05:27:15;;;;;;;14.30;9.48;;;1.70;99.90;;;;;;5056818;28;20575;-76
2020/12/02 05:29:53;;;;;;;14.23;9.35;;;1.70;99.90;;;;;;5057701;28;20200;-77
2020/12/02 05:32:22;;;;;;;13.27;9.40;;;1.70;99.90;;;;;;5057752;28;20251;-76
2020/12/02 05:34:49;;;;;;;14.68;8.80;;;1.80;99.90;;;;;;5058518;28;20208;-76
2020/12/02 05:37:23;;;;;;;13.85;9.80;;;1.80;99.90;;;;;;5057647;28;20719;-77
2020/12/02 05:39:54;;;;;;;14.98;10.48;;;1.80;99.90;;;;;;5057906;28;20643;-76
2020/12/02 05:42:33;;;;;;;15.35;10.93;;;1.80;99.90;;;;;;5056968;28;20260;-75
2020/12/02 05:45:11;;;;;;;14.70;9.88;;;1.70;99.90;;;;;;5058104;28;20664;-77
2020/12/02 05:47:38;;;;;;;13.50;10.25;;;1.80;99.90;;;;;;5057434;28;20201;-77
2020/12/02 05:50:10;;;;;;;16.00;10.25;;;1.80;99.90;;;;;;5057317;28;20581;-77
2020/12/02 05:52:38;;;;;;;16.92;9.57;;;1.80;99.90;;;;;;5056513;28;20217;-76
2020/12/02 05:55:10;;;;;;;15.02;9.98;;;1.70;99.90;;;;;;5057848;28;20213;-75
2020/12/02 05:57:41;;;;;;;15.73;10.43;;;1.70;99.90;;;;;;5058190;28;20225;-76
2020/12/02 06:00:08;;;;;;;12.02;9.07;;;1.70;99.90;;;;;;5058037;28;20227;-77
2020/12/02 06:02:37;;;;;;;17.63;10.05;;;1.70;99.90;;;;;;5057091;28;20229;-76
2020/12/02 06:05:10;;;;;;;13.68;9.88;;;1.60;99.90;;;;;;5056748;28;20201;-77
2020/12/02 06:07:47;;;;;;;15.10;9.45;;;1.60;99.90;;;;;;5056894;28;20201;-77
2020/12/02 06:10:13;;;;;;;12.48;9.27;;;1.60;99.90;;;;;;5057085;28;20235;-77
2020/12/02 06:12:42;;;;;;;14.55;10.25;;;1.60;99.90;;;;;;5054790;28;20316;-76
2020/12/02 06:15:17;;;;;;;13.90;9.68;;;1.60;99.90;;;;;;5055302;28;20197;-76
2020/12/02 06:17:43;;;;;;;13.75;9.73;;;1.60;99.90;;;;;;5055858;28;20216;-77
2020/12/02 06:20:10;;;;;;;16.83;9.80;;;1.60;99.90;;;;;;5057762;28;20216;-76
2020/12/02 06:22:49;;;;;;;14.25;9.80;;;1.60;99.90;;;;;;5056632;28;20221;-77
2020/12/02 06:25:47;;;;;;;12.20;9.00;;;1.60;99.90;;;;;;5056685;28;20303;-76
2020/12/02 06:28:15;;;;;;;16.15;9.48;;;1.60;99.90;;;;;;5056707;28;20208;-76
2020/12/02 06:30:43;;;;;;;15.75;10.82;;;1.50;99.90;;;;;;5056442;28;20209;-76
2020/12/02 06:33:18;;;;;;;14.32;9.63;;;1.50;99.90;;;;;;5056818;28;20991;-77
2020/12/02 06:35:49;;;;;;;12.02;8.13;;;1.50;99.90;;;;;;5056385;28;20201;-77
2020/12/02 06:38:27;;;;;;;13.95;9.15;;;1.50;99.90;;;;;;5056936;28;20278;-76
2020/12/02 06:41:30;;;;;;;17.30;9.50;;;1.50;99.90;;;;;;5057188;28;20207;-77
2020/12/02 06:44:17;;;;;;;13.02;9.23;;;1.50;99.90;;;;;;5056077;28;20201;-76
2020/12/02 06:46:58;;;;;;;15.40;9.75;;;1.40;99.90;;;;;;5055946;28;20209;-76
2020/12/02 06:49:26;;;;;;;13.63;9.38;;;1.50;99.90;;;;;;5055964;28;20210;-74
2020/12/02 06:51:56;;;;;;;14.77;10.98;;;1.50;99.90;;;;;;5053590;28;20221;-75
2020/12/02 06:54:22;;;;;;;16.80;10.35;;;1.50;99.90;;;;;;5053795;28;20251;-75
2020/12/02 06:56:56;;;;;;;13.63;8.88;;;1.50;99.90;;;;;;5055938;28;20209;-75
2020/12/02 06:59:22;;;;;;;12.18;9.13;;;1.50;99.90;;;;;;5055036;28;20225;-76
2020/12/02 07:01:50;;;;;;;13.68;10.52;;;1.50;99.90;;;;;;5055887;28;20593;-76
2020/12/02 07:04:22;;;;;;;13.65;8.57;;;1.50;99.90;;;;;;5054822;28;20262;-76
2020/12/02 07:07:00;;;;;;;14.20;9.45;;;1.50;99.90;;;;;;5065109;28;20262;-76
2020/12/02 07:09:27;;;;;;;12.98;9.20;;;1.50;99.90;;;;;;5074632;28;20686;-76
2020/12/02 07:11:56;;;;;;;13.43;9.05;;;1.40;99.90;;;;;;5074255;28;20227;-76
2020/12/02 07:14:33;;;;;;;13.20;8.75;;;1.40;99.90;;;;;;5074594;28;20204;-75
2020/12/02 07:17:02;;;;;;;16.08;9.77;;;1.30;99.90;;;;;;5072805;28;20200;-75
2020/12/02 07:19:32;;;;;;;19.00;10.50;;;1.20;99.90;;;;;;5070678;28;20239;-76
2020/12/02 07:22:03;;;;;;;15.07;9.48;;;1.20;99.90;;;;;;5071041;28;20252;-73
2020/12/02 07:24:35;;;;;;;15.48;10.38;;;1.20;99.90;;;;;;5073086;28;20211;-77
2020/12/02 07:27:01;;;;;;;20.20;9.93;;;1.30;99.90;;;;;;5074224;28;20207;-76
2020/12/02 07:29:38;;;;;;;16.27;10.50;;;1.20;99.90;;;;;;5073167;28;20192;-76
2020/12/02 07:32:09;;;;;;;16.25;9.55;;;1.20;99.90;;;;;;5070635;28;20231;-76
2020/12/02 07:34:36;;;;;;;15.40;9.18;;;1.30;99.90;;;;;;5070893;28;20200;-76
2020/12/02 07:37:06;;;;;;;15.48;10.10;;;1.30;99.90;;;;;;5071179;28;20215;-76
2020/12/02 07:39:32;;;;;;;14.93;9.43;;;1.30;99.90;;;;;;5071911;28;20220;-76
2020/12/02 07:42:08;;;;;;;15.57;9.80;;;1.30;99.90;;;;;;5070209;28;20582;-76
2020/12/02 07:44:38;;;;;;;13.85;9.32;;;1.20;99.90;;;;;;5071602;28;20192;-76
2020/12/02 07:47:10;;;;;;;13.65;9.57;;;1.20;99.90;;;;;;5071779;28;20208;-76
2020/12/02 07:49:37;;;;;;;16.88;10.00;;;1.20;99.90;;;;;;5072007;28;20214;-75
2020/12/02 07:52:13;;;;;;;14.98;9.02;;;1.30;99.90;;;;;;5071708;28;20228;-76
2020/12/02 07:54:40;;;;;;;16.42;10.15;;;1.30;99.90;;;;;;5072262;28;20253;-76
2020/12/02 07:57:08;;;;;;;15.52;11.40;;;1.30;99.90;;;;;;5073045;28;20208;-76
2020/12/02 07:59:35;;;;;;;15.23;10.00;;;1.30;99.90;;;;;;5072006;28;20223;-75
2020/12/02 08:02:18;;;;;;;16.35;10.50;;;1.30;99.90;;;;;;5069820;28;20232;-74
2020/12/02 08:04:58;;;;;;;12.40;8.80;;;1.30;99.90;;;;;;5073643;28;20261;-76
2020/12/02 08:07:46;;;;;;;14.32;10.93;;;1.40;99.90;;;;;;5072268;28;20203;-76
2020/12/02 08:10:23;;;;;;;16.65;10.55;;;1.40;99.90;;;;;;5072289;28;20691;-76
2020/12/02 08:12:50;;;;;;;14.50;9.80;;;1.40;99.90;;;;;;5054396;28;20216;-75
2020/12/02 08:15:16;;;;;;;16.40;10.07;;;1.40;99.90;;;;;;5050817;28;20239;-74
2020/12/02 08:17:59;;;;;;;18.15;11.27;;;1.50;99.90;;;;;;5050306;28;20233;-76
2020/12/02 08:20:31;;;;;;;14.82;9.80;;;1.50;99.90;;;;;;5053508;28;20205;-77
2020/12/02 08:23:00;;;;;;;15.43;10.10;;;1.50;99.90;;;;;;5051480;28;20583;-76
2020/12/02 08:25:33;;;;;;;16.35;10.45;;;1.40;99.90;;;;;;5067292;28;20204;-77
2020/12/02 08:28:01;;;;;;;14.50;9.88;;;1.40;99.90;;;;;;5060571;28;20197;-75
2020/12/02 08:30:30;;;;;;;16.65;9.40;;;1.30;99.90;;;;;;5057293;28;20201;-75
2020/12/02 08:32:59;;;;;;;13.55;9.50;;;1.20;99.90;;;;;;5055953;28;20221;-76
2020/12/02 08:35:30;;;;;;;15.45;11.00;;;1.20;99.90;;;;;;5055171;28;20201;-77
2020/12/02 08:37:59;;;;;;;18.67;11.63;;;1.20;99.90;;;;;;5064556;28;20209;-74
2020/12/02 08:40:47;;;;;;;15.68;11.18;;;1.10;99.90;;;;;;5055111;28;20212;-76
2020/12/02 08:43:26;;;;;;;18.63;11.60;;;1.10;99.90;;;;;;5049378;28;20236;-76
2020/12/02 08:45:55;;;;;;;18.20;11.93;;;1.20;99.90;;;;;;5059710;28;20601;-76
2020/12/02 08:48:22;;;;;;;17.58;9.93;;;1.20;99.90;;;;;;5039606;28;20637;-75
2020/12/02 08:50:48;;;;;;;18.80;9.60;;;1.10;99.90;;;;;;5052209;28;20209;-75
2020/12/02 08:53:21;;;;;;;19.05;10.48;;;1.10;99.90;;;;;;5053709;28;20308;-75
2020/12/02 08:55:49;;;;;;;13.23;8.88;;;1.20;99.90;;;;;;5051487;28;20571;-76
2020/12/02 08:58:15;;;;;;;16.33;9.77;;;1.20;99.90;;;;;;5042981;28;20579;-77
2020/12/02 09:00:41;;;;;;;14.90;10.30;;;1.20;99.90;;;;;;5051206;28;20203;-74
2020/12/02 09:03:07;;;;;;;15.90;9.38;;;1.20;99.90;;;;;;5050434;28;20225;-75
2020/12/02 09:05:34;;;;;;;20.35;10.68;;;1.20;99.90;;;;;;5051049;28;20676;-75
2020/12/02 09:08:01;;;;;;;15.05;9.52;;;1.20;99.90;;;;;;5049104;28;20288;-74
2020/12/02 09:10:27;;;;;;;17.95;9.38;;;1.10;99.90;;;;;;5052911;28;20209;-75
2020/12/02 09:12:54;;;;;;;15.40;9.35;;;1.10;99.90;;;;;;5049617;28;20224;-76
2020/12/02 09:15:20;;;;;;;16.20;9.05;;;1.20;99.90;;;;;;5050320;28;20213;-75
2020/12/02 09:17:46;;;;;;;14.90;9.25;;;1.20;99.90;;;;;;5052205;28;20225;-74
2020/12/02 09:20:13;;;;;;;14.77;8.77;;;1.30;99.90;;;;;;5052906;28;20695;-76
2020/12/02 09:22:39;;;;;;;13.93;8.90;;;1.40;99.90;;;;;;5050567;28;20225;-74
2020/12/02 09:25:05;;;;;;;17.73;10.10;;;1.40;99.90;;;;;;5051767;28;20204;-75
2020/12/02 09:27:34;;;;;;;14.50;10.75;;;1.40;99.90;;;;;;5052094;28;20209;-76
2020/12/02 09:30:01;;;;;;;13.45;8.35;;;1.40;99.90;;;;;;5052670;28;20612;-75
2020/12/02 09:32:27;;;;;;;12.73;9.10;;;1.40;99.90;;;;;;5053653;28;20228;-73
2020/12/02 09:34:54;;;;;;;14.60;8.30;;;1.50;99.90;;;;;;5052511;28;20208;-75
2020/12/02 09:37:20;;;;;;;13.48;7.63;;;1.50;99.90;;;;;;5051453;28;20216;-74
2020/12/02 09:39:47;;;;;;;13.75;8.88;;;1.60;99.90;;;;;;5051347;28;20727;-75
2020/12/02 09:42:25;;;;;;;15.43;9.15;;;1.60;99.90;;;;;;5052330;28;20750;-76
2020/12/02 09:45:02;;;;;;;14.48;8.45;;;1.60;99.90;;;;;;5050204;28;20209;-76
2020/12/02 09:47:29;;;;;;;10.20;7.05;;;1.60;99.90;;;;;;5049949;28;20212;-76
2020/12/02 09:49:55;;;;;;;10.10;7.75;;;1.60;99.90;;;;;;5048411;28;20212;-76
2020/12/02 09:52:41;;;;;;;13.10;8.35;;;1.60;99.90;;;;;;5049061;28;20603;-76
2020/12/02 09:55:13;;;;;;;12.23;9.25;;;1.60;99.90;;;;;;5048961;28;20246;-75
2020/12/02 09:57:39;;;;;;;11.35;7.65;;;1.60;99.90;;;;;;5048541;28;20212;-75
2020/12/02 10:00:09;;;;;;;11.48;7.13;;;1.60;99.90;;;;;;5048929;28;20197;-75
2020/12/02 10:03:07;;;;;;;12.02;8.18;;;1.70;99.90;;;;;;5048088;28;20232;-76
2020/12/02 10:05:58;;;;;;;12.10;7.50;;;1.80;99.90;;;;;;5050054;28;20379;-76
2020/12/02 10:08:39;;;;;;;10.80;7.20;;;1.70;99.90;;;;;;5047928;28;20200;-76
2020/12/02 10:11:17;;;;;;;8.63;6.50;;;1.80;99.90;;;;;;5048034;28;20201;-76
2020/12/02 10:14:09;;;;;;;9.10;5.97;;;1.80;99.90;;;;;;5050062;28;20576;-74
2020/12/02 10:16:43;;;;;;;9.35;6.30;;;1.80;99.90;;;;;;5052183;28;20211;-76
2020/12/02 10:19:44;;;;;;;9.68;6.75;;;1.90;99.90;;;;;;5051255;28;20675;-76
2020/12/02 10:22:28;;;;;;;9.68;6.75;;;1.90;99.90;;;;;;5034725;28;20232;-76
2020/12/02 10:25:16;;;;;;;7.22;5.63;;;1.90;99.90;;;;;;5051857;28;20194;-76
2020/12/02 10:30:48;;;;;;;9.75;6.40;;;2.00;99.90;;;;;;5053438;22;20241;-78
2020/12/02 10:33:42;;;;;;;7.97;5.97;;;2.00;99.90;;;;;;5042773;28;20227;-78
2020/12/02 10:36:09;;;;;;;7.82;6.38;;;2.00;99.90;;;;;;5041131;28;20641;-78
2020/12/02 10:38:40;;;;;;;11.15;7.10;;;2.00;99.90;;;;;;5053270;28;20591;-78
2020/12/02 10:41:20;;;;;;;9.63;5.93;;;2.00;99.90;;;;;;5051643;28;20201;-78
2020/12/02 10:44:05;;;;;;;10.35;7.40;;;2.00;99.90;;;;;;5052312;28;20571;-79
2020/12/02 10:46:46;;;;;;;9.75;6.13;;;2.00;99.90;;;;;;5072453;28;20207;-79
2020/12/02 10:49:24;;;;;;;9.05;6.57;;;2.10;99.90;;;;;;5043235;28;20216;-79
2020/12/02 10:51:54;;;;;;;10.77;7.40;;;2.00;99.90;;;;;;5061511;28;20220;-79
2020/12/02 10:54:23;;;;;;;10.02;6.40;;;2.00;99.90;;;;;;5073823;28;20200;-78
2020/12/02 10:56:55;;;;;;;11.55;7.65;;;2.00;99.90;;;;;;5076659;28;20207;-79
2020/12/02 10:59:23;;;;;;;11.48;7.63;;;1.90;99.90;;;;;;5055064;28;20291;-79
2020/12/02 11:01:49;;;;;;;9.90;7.30;;;2.00;99.90;;;;;;5052215;28;20221;-78
2020/12/02 11:04:18;;;;;;;10.10;7.07;;;1.90;99.90;;;;;;5053112;28;20735;-79
2020/12/02 11:06:55;;;;;;;10.43;7.88;;;1.90;99.90;;;;;;5047811;28;20205;-79
2020/12/02 11:09:35;;;;;;;10.60;7.30;;;1.90;99.90;;;;;;5049771;28;20197;-79
2020/12/02 11:12:19;;;;;;;12.95;7.80;;;1.90;99.90;;;;;;5041974;28;20212;-78
2020/12/02 11:15:01;;;;;;;10.63;7.80;;;1.90;99.90;;;;;;5049563;28;20209;-78
2020/12/02 11:17:38;;;;;;;11.50;7.60;;;1.90;99.90;;;;;;5039845;28;20588;-79
2020/12/02 11:20:09;;;;;;;10.35;7.95;;;1.90;99.90;;;;;;5047740;28;20288;-79
2020/12/02 11:22:56;;;;;;;30.42;12.98;;;1.90;99.90;;;;;;5049838;28;20229;-80
2020/12/02 11:25:30;;;;;;;22.67;12.05;;;1.90;99.90;;;;;;5050779;28;20201;-80
2020/12/02 11:27:57;;;;;;;19.95;12.23;;;1.90;99.90;;;;;;5049670;28;20210;-80
2020/12/02 11:30:28;;;;;;;26.67;13.90;;;1.90;99.90;;;;;;5056943;28;20205;-79
2020/12/02 11:33:34;;;;;;;21.10;12.80;;;1.90;99.90;;;;;;5065355;28;20225;-79
2020/12/02 11:36:47;;;;;;;23.25;12.95;;;1.90;99.90;;;;;;5069031;28;20185;-80
2020/12/02 11:39:40;;;;;;;20.85;11.55;;;1.90;99.90;;;;;;5072191;28;20219;-79
2020/12/02 11:42:16;;;;;;;21.15;11.98;;;1.90;99.90;;;;;;5070312;28;20219;-79
2020/12/02 11:44:52;;;;;;;18.55;11.70;;;1.90;99.90;;;;;;5070234;28;20181;-79
2020/12/02 11:47:27;;;;;;;19.15;12.32;;;1.90;99.90;;;;;;5052226;28;20951;-79
2020/12/02 11:49:58;;;;;;;20.92;11.73;;;1.80;99.90;;;;;;5051652;28;20250;-79
2020/12/02 11:52:40;;;;;;;19.08;13.00;;;1.80;99.90;;;;;;5049554;28;20228;-79
2020/12/02 11:55:14;;;;;;;22.73;13.35;;;1.80;99.90;;;;;;5053313;28;20209;-79
2020/12/02 11:57:48;;;;;;;24.10;14.27;;;1.80;99.90;;;;;;5052207;28;20967;-79
2020/12/02 12:00:15;;;;;;;24.00;12.60;;;1.70;99.90;;;;;;5049295;28;20200;-79
2020/12/02 12:02:53;;;;;;;26.42;13.45;;;1.70;99.90;;;;;;5048279;28;20240;-79
2020/12/02 12:05:24;;;;;;;21.30;12.82;;;1.70;99.90;;;;;;5050204;28;20209;-79
2020/12/02 12:08:18;;;;;;;23.20;11.90;;;1.80;99.90;;;;;;5049211;28;20205;-79
2020/12/02 12:10:52;;;;;;;24.38;14.20;;;1.80;99.90;;;;;;5050306;28;20221;-79
2020/12/02 12:13:23;;;;;;;18.60;12.07;;;1.90;99.90;;;;;;5050462;28;20221;-79
2020/12/02 12:15:53;;;;;;;22.63;11.63;;;1.90;99.90;;;;;;5050262;28;20197;-79
2020/12/02 12:18:42;;;;;;;21.42;12.85;;;1.80;99.90;;;;;;5051193;28;20221;-79
2020/12/02 12:21:19;;;;;;;18.02;11.15;;;1.90;99.90;;;;;;5049023;28;20208;-78
2020/12/02 12:24:00;;;;;;;23.25;11.13;;;1.90;99.90;;;;;;5050128;28;20213;-79
2020/12/02 12:26:32;;;;;;;19.95;10.93;;;1.90;99.90;;;;;;5050318;28;20205;-79
2020/12/02 12:28:58;;;;;;;18.85;10.88;;;1.80;99.90;;;;;;5051056;28;20223;-79
2020/12/02 12:31:33;;;;;;;16.67;9.77;;;1.70;99.90;;;;;;5050493;28;20228;-79
2020/12/02 12:34:09;;;;;;;21.77;12.15;;;1.70;99.90;;;;;;5050210;28;20196;-79
2020/12/02 12:36:35;;;;;;;23.02;12.57;;;1.70;99.90;;;;;;5051047;28;20197;-79
2020/12/02 12:39:12;;;;;;;22.52;12.40;;;1.70;99.90;;;;;;5051741;28;20236;-79
2020/12/02 12:41:41;;;;;;;21.10;10.98;;;1.70;99.90;;;;;;5049654;28;20707;-78
2020/12/02 12:44:13;;;;;;;19.50;10.70;;;1.70;99.90;;;;;;5051398;28;20197;-78
2020/12/02 12:46:45;;;;;;;21.10;12.15;;;1.60;99.90;;;;;;5051058;28;20196;-78
2020/12/02 12:49:14;;;;;;;21.63;11.48;;;1.60;99.90;;;;;;5048787;28;20197;-79
2020/12/02 12:51:42;;;;;;;19.58;12.00;;;1.60;99.90;;;;;;5049173;28;20991;-78
2020/12/02 12:54:13;;;;;;;21.70;12.55;;;1.60;99.90;;;;;;5050504;28;20209;-79
2020/12/02 12:56:41;;;;;;;21.77;11.75;;;1.50;99.90;;;;;;5048485;28;20958;-80
2020/12/02 12:59:10;;;;;;;21.63;14.13;;;1.50;99.90;;;;;;5049759;28;20223;-79
2020/12/02 13:01:39;;;;;;;25.33;14.35;;;1.50;99.90;;;;;;5050033;28;20252;-79
2020/12/02 13:04:07;;;;;;;24.23;14.63;;;1.50;99.90;;;;;;5055815;28;20197;-79
2020/12/02 13:07:10;;;;;;;24.50;13.35;;;1.40;99.90;;;;;;5052254;28;20698;-79